DNBE

Benin Airport

Benin, Nigeria
TAF DNBE 260350Z 2606/2712 VRB02KT 4000 BR SCT009 PROB30 TEMPO 2606/2607 3000 BECMG 2608/2610 22010KT 9999 NSW BKN013 TEMPO 2609/2615 TS BKN013 FEW020CB PROB30 2614/2619 5000 TSRA BKN009 FEW019CB
Issued Valid From Valid To
Apr-26 @ 03:50 UTC
(2 hours ago)
Apr-26 @ 06:00 UTC
(in 7 minutes)
Apr-27 @ 12:00 UTC
(-1 days ago)
Apr-26 @ 06:00 to Apr-26 @ 08:00
TAF DNBE 260350Z 2606/2712 VRB02KT 4000 BR SCT009
Wind Visibility Clouds Conditions
Variable at 2 knots 4,007 meters
  • Scattered at 900' AGL
  • Mist
Temporary  (Probability 30%) Apr-26 @ 06:00 to Apr-26 @ 07:00
PROB30 TEMPO 2606/2607 3000
Visibility
2,993 meters
Becoming Apr-26 @ 08:00 to Apr-27 @ 12:00
BECMG 2608/2610 22010KT 9999 NSW BKN013
Wind Visibility Clouds Conditions
220° at 10 knots 10,000+ meters
  • Broken at 1,300' AGL
Temporary Apr-26 @ 09:00 to Apr-26 @ 15:00
TEMPO 2609/2615 TS BKN013 FEW020CB
Clouds Conditions
  • Broken at 1,300' AGL
  • Few at 2,000' AGL
  • Thunderstorm
Probable  (Probability 30%) Apr-26 @ 14:00 to Apr-26 @ 19:00
PROB30 2614/2619 5000 TSRA BKN009 FEW019CB
Visibility Clouds Conditions
5,005 meters
  • Broken at 900' AGL
  • Few at 1,900' AGL
  • Thunderstorm
  • Rain
TAF DNBE 260350Z 2606/2712 VRB02KT 4000 BR SCT009 PROB30 TEMPO 2606/2607 3000 BECMG 2608/2610 22010KT 9999 NSW BKN013 TEMPO 2609/2615 TS BKN013 FEW020CB PROB30 2614/2619 5000 TSRA BKN009 FEW019CB
Issued Apr-26 @ 03:50 UTC
(2 hours ago)
Valid From Apr-26 @ 06:00 UTC
(in 7 minutes)
Valid To Apr-27 @ 12:00 UTC
(-1 days ago)
Apr-26 @ 06:00 - Apr-26 @ 08:00
Wind Visibility
Variable at 2 knots 4,007 meters
Clouds
  • Scattered at 900' AGL
Conditions
  • Mist
Probability 30% Temporary Apr-26 @ 06:00 - Apr-26 @ 07:00
Becoming Apr-26 @ 08:00 - Apr-27 @ 12:00
Wind Visibility
220° at 10 knots 10,000+ meters
Clouds
  • Broken at 1,300' AGL
Conditions
Temporary Apr-26 @ 09:00 - Apr-26 @ 15:00
Clouds
  • Broken at 1,300' AGL
  • Few at 2,000' AGL
Conditions
  • Thunderstorm
Probability 30% Probable Apr-26 @ 14:00 - Apr-26 @ 19:00
Clouds
  • Broken at 900' AGL
  • Few at 1,900' AGL
Conditions
  • Thunderstorm
  • Rain